sensor_id;sensor_type;location;lat;lon;timestamp;pressure;altitude;pressure_sealevel;temperature;humidity
13974;BME280;7060;43.770;4.008;2022-12-29T00:01:16;101549.41;;;10.45;73.97
13974;BME280;7060;43.770;4.008;2022-12-29T00:03:45;101551.13;;;10.46;74.11
13974;BME280;7060;43.770;4.008;2022-12-29T00:06:14;101549.03;;;10.49;73.90
13974;BME280;7060;43.770;4.008;2022-12-29T00:08:44;101539.91;;;10.52;74.00
13974;BME280;7060;43.770;4.008;2022-12-29T00:11:15;101545.13;;;10.53;74.01
13974;BME280;7060;43.770;4.008;2022-12-29T00:13:43;101545.13;;;10.53;74.22
13974;BME280;7060;43.770;4.008;2022-12-29T00:16:29;101539.91;;;10.52;74.02
13974;BME280;7060;43.770;4.008;2022-12-29T00:18:58;101538.19;;;10.51;74.31
13974;BME280;7060;43.770;4.008;2022-12-29T00:21:27;101531.16;;;10.50;74.27
13974;BME280;7060;43.770;4.008;2022-12-29T00:24:16;101530.19;;;10.51;74.23
13974;BME280;7060;43.770;4.008;2022-12-29T00:27:11;101518.19;;;10.45;74.21
13974;BME280;7060;43.770;4.008;2022-12-29T00:29:57;101512.13;;;10.43;74.44
13974;BME280;7060;43.770;4.008;2022-12-29T00:32:43;101501.31;;;10.45;74.62
13974;BME280;7060;43.770;4.008;2022-12-29T00:35:33;101497.66;;;10.46;74.56
13974;BME280;7060;43.770;4.008;2022-12-29T00:38:05;101493.16;;;10.46;74.61
13974;BME280;7060;43.770;4.008;2022-12-29T00:40:54;101479.81;;;10.35;74.60
13974;BME280;7060;43.770;4.008;2022-12-29T00:43:40;101486.50;;;10.41;74.71
13974;BME280;7060;43.770;4.008;2022-12-29T00:46:26;101487.47;;;10.40;74.42
13974;BME280;7060;43.770;4.008;2022-12-29T00:48:55;101487.47;;;10.40;74.43
13974;BME280;7060;43.770;4.008;2022-12-29T00:51:41;101490.13;;;10.40;74.33
13974;BME280;7060;43.770;4.008;2022-12-29T00:54:10;101496.19;;;10.42;74.35
13974;BME280;7060;43.770;4.008;2022-12-29T00:56:41;101488.91;;;10.44;74.47
13974;BME280;7060;43.770;4.008;2022-12-29T00:59:10;101486.00;;;10.47;74.12
13974;BME280;7060;43.770;4.008;2022-12-29T01:01:39;101488.06;;;10.43;74.31
13974;BME280;7060;43.770;4.008;2022-12-29T01:04:08;101490.97;;;10.40;74.55
13974;BME280;7060;43.770;4.008;2022-12-29T01:06:38;101486.84;;;10.36;74.64
13974;BME280;7060;43.770;4.008;2022-12-29T01:09:08;101486.84;;;10.36;75.05
13974;BME280;7060;43.770;4.008;2022-12-29T01:11:55;101446.13;;;10.12;75.21
13974;BME280;7060;43.770;4.008;2022-12-29T01:14:24;101486.84;;;10.36;75.27
13974;BME280;7060;43.770;4.008;2022-12-29T01:16:55;101399.66;;;9.92;74.93
13974;BME280;7060;43.770;4.008;2022-12-29T01:19:24;101481.88;;;10.43;75.04
13974;BME280;7060;43.770;4.008;2022-12-29T01:21:54;101482.59;;;10.45;75.29
13974;BME280;7060;43.770;4.008;2022-12-29T01:24:23;101483.56;;;10.44;75.19
13974;BME280;7060;43.770;4.008;2022-12-29T01:26:52;101473.97;;;10.41;75.41
13974;BME280;7060;43.770;4.008;2022-12-29T01:29:23;101482.00;;;10.41;75.48
13974;BME280;7060;43.770;4.008;2022-12-29T01:31:53;101485.50;;;10.42;75.57
13974;BME280;7060;43.770;4.008;2022-12-29T01:34:22;101490.72;;;10.43;75.50
13974;BME280;7060;43.770;4.008;2022-12-29T01:36:50;101495.22;;;10.43;75.62
13974;BME280;7060;43.770;4.008;2022-12-29T01:39:19;101490.72;;;10.43;75.44
13974;BME280;7060;43.770;4.008;2022-12-29T01:41:47;101488.66;;;10.47;75.58
13974;BME280;7060;43.770;4.008;2022-12-29T01:44:48;101492.03;;;10.49;75.22
13974;BME280;7060;43.770;4.008;2022-12-29T01:47:22;101460.25;;;10.35;75.44
13974;BME280;7060;43.770;4.008;2022-12-29T01:49:56;101448.63;;;10.25;75.35
13974;BME280;7060;43.770;4.008;2022-12-29T01:52:29;101493.16;;;10.46;75.36
13974;BME280;7060;43.770;4.008;2022-12-29T01:55:02;101494.25;;;10.44;75.36
13974;BME280;7060;43.770;4.008;2022-12-29T01:57:34;101493.28;;;10.45;75.39
13974;BME280;7060;43.770;4.008;2022-12-29T02:00:09;101498.63;;;10.45;75.52
13974;BME280;7060;43.770;4.008;2022-12-29T02:02:50;101477.25;;;10.45;75.36
13974;BME280;7060;43.770;4.008;2022-12-29T02:05:24;101456.84;;;10.33;75.46
13974;BME280;7060;43.770;4.008;2022-12-29T02:07:55;101477.13;;;10.46;75.36
13974;BME280;7060;43.770;4.008;2022-12-29T02:10:26;101436.69;;;10.29;75.34
13974;BME280;7060;43.770;4.008;2022-12-29T02:12:56;101466.56;;;10.45;75.42
13974;BME280;7060;43.770;4.008;2022-12-29T02:15:35;101466.81;;;10.42;75.29
13974;BME280;7060;43.770;4.008;2022-12-29T02:18:17;101468.63;;;10.41;75.43
13974;BME280;7060;43.770;4.008;2022-12-29T02:21:22;101467.06;;;10.39;75.36
13974;BME280;7060;43.770;4.008;2022-12-29T02:24:16;101461.81;;;10.37;75.39
13974;BME280;7060;43.770;4.008;2022-12-29T02:27:01;101469.59;;;10.40;75.25
13974;BME280;7060;43.770;4.008;2022-12-29T02:29:48;101444.72;;;10.29;75.41
13974;BME280;7060;43.770;4.008;2022-12-29T02:32:29;101476.41;;;10.44;75.29
13974;BME280;7060;43.770;4.008;2022-12-29T02:35:07;101446.41;;;10.30;74.96
13974;BME280;7060;43.770;4.008;2022-12-29T02:37:41;101448.84;;;10.33;74.95
13974;BME280;7060;43.770;4.008;2022-12-29T02:40:18;101442.78;;;10.31;75.06
13974;BME280;7060;43.770;4.008;2022-12-29T02:42:55;101461.19;;;10.45;75.24
13974;BME280;7060;43.770;4.008;2022-12-29T02:45:31;101320.38;;;9.61;74.97
13974;BME280;7060;43.770;4.008;2022-12-29T02:48:06;101458.53;;;10.45;74.97
13974;BME280;7060;43.770;4.008;2022-12-29T02:50:42;101431.09;;;10.32;74.79
13974;BME280;7060;43.770;4.008;2022-12-29T02:53:14;101441.75;;;10.43;75.20
13974;BME280;7060;43.770;4.008;2022-12-29T02:55:47;101436.28;;;10.44;75.03
13974;BME280;7060;43.770;4.008;2022-12-29T02:58:18;101432.06;;;10.42;74.91
13974;BME280;7060;43.770;4.008;2022-12-29T03:01:06;101433.28;;;10.38;75.08
13974;BME280;7060;43.770;4.008;2022-12-29T03:03:51;101438.88;;;10.35;75.18
13974;BME280;7060;43.770;4.008;2022-12-29T03:06:34;101435.72;;;10.30;75.21
13974;BME280;7060;43.770;4.008;2022-12-29T03:09:11;101418.00;;;10.29;75.29
13974;BME280;7060;43.770;4.008;2022-12-29T03:11:50;101424.31;;;10.28;75.37
13974;BME280;7060;43.770;4.008;2022-12-29T03:14:55;101394.03;;;10.06;75.53
13974;BME280;7060;43.770;4.008;2022-12-29T03:17:51;101433.56;;;10.24;75.52
13974;BME280;7060;43.770;4.008;2022-12-29T03:20:28;101428.09;;;10.25;75.67
13974;BME280;7060;43.770;4.008;2022-12-29T03:23:03;101455.78;;;10.24;75.98
13974;BME280;7060;43.770;4.008;2022-12-29T03:25:38;101399.88;;;10.00;76.14
13974;BME280;7060;43.770;4.008;2022-12-29T03:28:12;101404.00;;;10.04;76.19
13974;BME280;7060;43.770;4.008;2022-12-29T03:30:46;101401.91;;;10.08;76.49
13974;BME280;7060;43.770;4.008;2022-12-29T03:33:21;101440.47;;;10.26;76.60
13974;BME280;7060;43.770;4.008;2022-12-29T03:35:57;101430.63;;;10.27;76.59
13974;BME280;7060;43.770;4.008;2022-12-29T03:38:34;101408.97;;;10.09;76.72
13974;BME280;7060;43.770;4.008;2022-12-29T03:41:08;101440.22;;;10.29;76.83
13974;BME280;7060;43.770;4.008;2022-12-29T03:43:39;101425.03;;;10.30;76.88
13974;BME280;7060;43.770;4.008;2022-12-29T03:46:07;101414.34;;;10.30;76.84
13974;BME280;7060;43.770;4.008;2022-12-29T03:48:38;101421.84;;;10.36;77.13
13974;BME280;7060;43.770;4.008;2022-12-29T03:51:09;101430.34;;;10.41;76.98
13974;BME280;7060;43.770;4.008;2022-12-29T03:53:37;101428.41;;;10.43;76.67
13974;BME280;7060;43.770;4.008;2022-12-29T03:56:06;101427.16;;;10.47;76.55
13974;BME280;7060;43.770;4.008;2022-12-29T03:58:34;101417.16;;;10.49;76.53
13974;BME280;7060;43.770;4.008;2022-12-29T04:01:17;101423.38;;;10.49;76.45
13974;BME280;7060;43.770;4.008;2022-12-29T04:03:46;101420.31;;;10.54;76.34
13974;BME280;7060;43.770;4.008;2022-12-29T04:06:16;101431.84;;;10.54;76.18
13974;BME280;7060;43.770;4.008;2022-12-29T04:08:49;101425.41;;;10.57;76.41
13974;BME280;7060;43.770;4.008;2022-12-29T04:11:18;101412.97;;;10.46;76.17
13974;BME280;7060;43.770;4.008;2022-12-29T04:13:46;101421.50;;;10.61;76.11
13974;BME280;7060;43.770;4.008;2022-12-29T04:16:18;101424.75;;;10.65;76.27
13974;BME280;7060;43.770;4.008;2022-12-29T04:18:47;101429.13;;;10.66;76.12
13974;BME280;7060;43.770;4.008;2022-12-29T04:21:17;101426.22;;;10.69;76.14
13974;BME280;7060;43.770;4.008;2022-12-29T04:23:45;101433.38;;;10.68;76.17
13974;BME280;7060;43.770;4.008;2022-12-29T04:26:15;101421.00;;;10.67;76.04
13974;BME280;7060;43.770;4.008;2022-12-29T04:29:12;101417.00;;;10.62;75.93
13974;BME280;7060;43.770;4.008;2022-12-29T04:31:59;101419.81;;;10.60;76.33
13974;BME280;7060;43.770;4.008;2022-12-29T04:34:29;101414.44;;;10.60;76.30
13974;BME280;7060;43.770;4.008;2022-12-29T04:36:59;101416.41;;;10.58;76.08
13974;BME280;7060;43.770;4.008;2022-12-29T04:39:28;101424.69;;;10.55;76.53
13974;BME280;7060;43.770;4.008;2022-12-29T04:41:56;101424.69;;;10.55;76.45
13974;BME280;7060;43.770;4.008;2022-12-29T04:44:25;101429.91;;;10.57;76.71
13974;BME280;7060;43.770;4.008;2022-12-29T04:47:08;101426.25;;;10.58;76.53
13974;BME280;7060;43.770;4.008;2022-12-29T04:49:55;101428.22;;;10.56;76.67
13974;BME280;7060;43.770;4.008;2022-12-29T04:52:40;101422.97;;;10.54;77.29
13974;BME280;7060;43.770;4.008;2022-12-29T04:55:10;101427.59;;;10.52;76.65
13974;BME280;7060;43.770;4.008;2022-12-29T04:57:40;101436.59;;;10.51;76.67
13974;BME280;7060;43.770;4.008;2022-12-29T05:00:13;101429.31;;;10.53;76.58
13974;BME280;7060;43.770;4.008;2022-12-29T05:02:42;101433.69;;;10.54;76.52
13974;BME280;7060;43.770;4.008;2022-12-29T05:05:11;101440.84;;;10.53;76.49
13974;BME280;7060;43.770;4.008;2022-12-29T05:07:44;101429.91;;;10.57;76.32
13974;BME280;7060;43.770;4.008;2022-12-29T05:10:13;101435.97;;;10.59;76.46
13974;BME280;7060;43.770;4.008;2022-12-29T05:12:41;101426.84;;;10.61;76.24
13974;BME280;7060;43.770;4.008;2022-12-29T05:15:12;101427.81;;;10.60;76.10
13974;BME280;7060;43.770;4.008;2022-12-29T05:17:42;101428.53;;;10.62;75.78
13974;BME280;7060;43.770;4.008;2022-12-29T05:20:11;101430.50;;;10.60;75.91
13974;BME280;7060;43.770;4.008;2022-12-29T05:22:41;101437.53;;;10.61;75.68
13974;BME280;7060;43.770;4.008;2022-12-29T05:25:11;101439.25;;;10.62;75.46
13974;BME280;7060;43.770;4.008;2022-12-29T05:27:56;101445.69;;;10.60;75.72
13974;BME280;7060;43.770;4.008;2022-12-29T05:30:42;101428.34;;;10.54;75.63
13974;BME280;7060;43.770;4.008;2022-12-29T05:33:11;101425.19;;;10.49;76.05
13974;BME280;7060;43.770;4.008;2022-12-29T05:35:41;101423.78;;;10.45;76.17
13974;BME280;7060;43.770;4.008;2022-12-29T05:38:09;101422.22;;;10.42;76.51
13974;BME280;7060;43.770;4.008;2022-12-29T05:40:39;101414.31;;;10.41;76.32
13974;BME280;7060;43.770;4.008;2022-12-29T05:43:34;101407.53;;;10.37;76.66
13974;BME280;7060;43.770;4.008;2022-12-29T05:46:31;101404.50;;;10.30;77.13
13974;BME280;7060;43.770;4.008;2022-12-29T05:49:14;101406.78;;;10.35;77.22
13974;BME280;7060;43.770;4.008;2022-12-29T05:52:00;101413.72;;;10.37;77.24
13974;BME280;7060;43.770;4.008;2022-12-29T05:54:31;101413.47;;;10.40;77.14
13974;BME280;7060;43.770;4.008;2022-12-29T05:57:02;101404.09;;;10.46;76.87
13974;BME280;7060;43.770;4.008;2022-12-29T05:59:32;101420.56;;;10.51;76.64
13974;BME280;7060;43.770;4.008;2022-12-29T06:02:01;101424.69;;;10.55;76.52
13974;BME280;7060;43.770;4.008;2022-12-29T06:04:30;101434.16;;;10.59;76.42
13974;BME280;7060;43.770;4.008;2022-12-29T06:06:59;101429.53;;;10.61;76.33
13974;BME280;7060;43.770;4.008;2022-12-29T06:09:38;101432.44;;;10.58;76.27
13974;BME280;7060;43.770;4.008;2022-12-29T06:12:08;101444.97;;;10.58;76.12
13974;BME280;7060;43.770;4.008;2022-12-29T06:14:39;101441.94;;;10.51;76.61
13974;BME280;7060;43.770;4.008;2022-12-29T06:17:07;101444.75;;;10.49;76.67
13974;BME280;7060;43.770;4.008;2022-12-29T06:19:37;101445.75;;;10.48;76.67
13974;BME280;7060;43.770;4.008;2022-12-29T06:22:06;101451.22;;;10.47;76.71
13974;BME280;7060;43.770;4.008;2022-12-29T06:24:35;101441.38;;;10.47;76.79
13974;BME280;7060;43.770;4.008;2022-12-29T06:27:04;101452.94;;;10.48;76.86
13974;BME280;7060;43.770;4.008;2022-12-29T06:29:34;101458.28;;;10.48;76.93
13974;BME280;7060;43.770;4.008;2022-12-29T06:32:04;101451.09;;;10.48;77.03
13974;BME280;7060;43.770;4.008;2022-12-29T06:34:33;101446.75;;;10.47;76.98
13974;BME280;7060;43.770;4.008;2022-12-29T06:37:01;101445.94;;;10.89;75.72
13974;BME280;7060;43.770;4.008;2022-12-29T06:39:30;101440.44;;;10.69;76.03
13974;BME280;7060;43.770;4.008;2022-12-29T06:42:10;101449.22;;;10.60;76.41
13974;BME280;7060;43.770;4.008;2022-12-29T06:44:55;101447.50;;;10.59;76.43
13974;BME280;7060;43.770;4.008;2022-12-29T06:47:25;101440.34;;;10.60;76.34
13974;BME280;7060;43.770;4.008;2022-12-29T06:49:54;101448.13;;;10.63;76.24
13974;BME280;7060;43.770;4.008;2022-12-29T06:52:22;101447.38;;;10.61;76.17
13974;BME280;7060;43.770;4.008;2022-12-29T06:54:51;101449.22;;;10.60;76.06
13974;BME280;7060;43.770;4.008;2022-12-29T06:57:20;101454.44;;;10.62;76.20
13974;BME280;7060;43.770;4.008;2022-12-29T06:59:49;101455.53;;;10.59;76.25
13974;BME280;7060;43.770;4.008;2022-12-29T07:02:19;101464.03;;;10.64;76.15
13974;BME280;7060;43.770;4.008;2022-12-29T07:04:49;101458.69;;;10.64;76.24
13974;BME280;7060;43.770;4.008;2022-12-29T07:07:18;101458.69;;;10.64;76.43
13974;BME280;7060;43.770;4.008;2022-12-29T07:09:47;101462.59;;;10.60;76.47
13974;BME280;7060;43.770;4.008;2022-12-29T07:12:15;101474.38;;;10.58;76.51
13974;BME280;7060;43.770;4.008;2022-12-29T07:14:45;101469.16;;;10.56;76.78
13974;BME280;7060;43.770;4.008;2022-12-29T07:17:14;101468.06;;;10.59;76.81
13974;BME280;7060;43.770;4.008;2022-12-29T07:19:44;101468.06;;;10.59;77.05
13974;BME280;7060;43.770;4.008;2022-12-29T07:22:12;101474.63;;;10.54;76.92
13974;BME280;7060;43.770;4.008;2022-12-29T07:24:41;101482.53;;;10.56;77.25
13974;BME280;7060;43.770;4.008;2022-12-29T07:27:10;101486.66;;;10.60;76.96
13974;BME280;7060;43.770;4.008;2022-12-29T07:29:38;101491.63;;;10.65;76.98
13974;BME280;7060;43.770;4.008;2022-12-29T07:32:06;101489.41;;;10.70;76.89
13974;BME280;7060;43.770;4.008;2022-12-29T07:34:35;101492.69;;;10.73;76.40
13974;BME280;7060;43.770;4.008;2022-12-29T07:37:05;101498.75;;;10.75;76.21
13974;BME280;7060;43.770;4.008;2022-12-29T07:39:33;101498.50;;;10.78;76.34
13974;BME280;7060;43.770;4.008;2022-12-29T07:42:02;101496.56;;;10.80;76.07
13974;BME280;7060;43.770;4.008;2022-12-29T07:44:38;101496.81;;;10.77;75.79
13974;BME280;7060;43.770;4.008;2022-12-29T07:47:27;101495.09;;;10.76;76.00
13974;BME280;7060;43.770;4.008;2022-12-29T07:49:55;101502.28;;;10.76;76.22
13974;BME280;7060;43.770;4.008;2022-12-29T07:52:25;101501.19;;;10.78;76.09
13974;BME280;7060;43.770;4.008;2022-12-29T07:54:53;101506.28;;;10.81;76.20
13974;BME280;7060;43.770;4.008;2022-12-29T07:57:22;101507.13;;;10.82;75.87
13974;BME280;7060;43.770;4.008;2022-12-29T07:59:57;101504.44;;;10.82;75.76
13974;BME280;7060;43.770;4.008;2022-12-29T08:02:26;101517.69;;;10.83;75.94
13974;BME280;7060;43.770;4.008;2022-12-29T08:04:55;101513.72;;;10.78;75.68
13974;BME280;7060;43.770;4.008;2022-12-29T08:07:25;101518.06;;;10.79;76.10
13974;BME280;7060;43.770;4.008;2022-12-29T08:09:53;101518.19;;;10.77;76.50
13974;BME280;7060;43.770;4.008;2022-12-29T08:12:22;101521.59;;;10.79;76.39
13974;BME280;7060;43.770;4.008;2022-12-29T08:14:51;101521.34;;;10.82;76.25
13974;BME280;7060;43.770;4.008;2022-12-29T08:17:20;101529.84;;;10.88;76.54
13974;BME280;7060;43.770;4.008;2022-12-29T08:19:48;101536.38;;;10.95;76.35
13974;BME280;7060;43.770;4.008;2022-12-29T08:22:19;101531.50;;;11.00;76.16
13974;BME280;7060;43.770;4.008;2022-12-29T08:24:49;101414.56;;;10.38;75.69
13974;BME280;7060;43.770;4.008;2022-12-29T08:27:19;101530.13;;;11.05;75.57
13974;BME280;7060;43.770;4.008;2022-12-29T08:29:48;101533.38;;;11.09;75.64
13974;BME280;7060;43.770;4.008;2022-12-29T08:32:17;101518.03;;;11.11;75.92
13974;BME280;7060;43.770;4.008;2022-12-29T08:34:47;101511.72;;;11.12;76.01
13974;BME280;7060;43.770;4.008;2022-12-29T08:37:15;101515.72;;;11.17;76.25
13974;BME280;7060;43.770;4.008;2022-12-29T08:39:45;101515.72;;;11.17;76.50
13974;BME280;7060;43.770;4.008;2022-12-29T08:42:15;101517.28;;;11.20;76.69
13974;BME280;7060;43.770;4.008;2022-12-29T08:44:43;101513.63;;;11.21;76.65
13974;BME280;7060;43.770;4.008;2022-12-29T08:47:12;101525.63;;;11.27;76.93
13974;BME280;7060;43.770;4.008;2022-12-29T08:49:40;101525.09;;;11.33;76.70
13974;BME280;7060;43.770;4.008;2022-12-29T08:52:13;101524.69;;;11.37;76.73
13974;BME280;7060;43.770;4.008;2022-12-29T08:54:43;101532.94;;;11.45;76.24
13974;BME280;7060;43.770;4.008;2022-12-29T08:57:17;101534.97;;;11.53;76.07
13974;BME280;7060;43.770;4.008;2022-12-29T08:59:58;101538.47;;;11.53;76.38
13974;BME280;7060;43.770;4.008;2022-12-29T09:02:32;101537.25;;;11.58;76.03
13974;BME280;7060;43.770;4.008;2022-12-29T09:05:01;101518.50;;;11.58;76.16
13974;BME280;7060;43.770;4.008;2022-12-29T09:07:29;101517.09;;;11.63;75.86
13974;BME280;7060;43.770;4.008;2022-12-29T09:09:58;101522.22;;;11.76;75.98
13974;BME280;7060;43.770;4.008;2022-12-29T09:12:27;101521.31;;;11.96;75.23
13974;BME280;7060;43.770;4.008;2022-12-29T09:15:03;101490.00;;;11.97;75.69
13974;BME280;7060;43.770;4.008;2022-12-29T09:17:31;101506.75;;;12.19;74.63
13974;BME280;7060;43.770;4.008;2022-12-29T09:20:09;101501.97;;;12.23;74.06
13974;BME280;7060;43.770;4.008;2022-12-29T09:22:38;101510.84;;;12.24;73.73
13974;BME280;7060;43.770;4.008;2022-12-29T09:25:07;101517.91;;;12.25;73.57
13974;BME280;7060;43.770;4.008;2022-12-29T09:27:38;101510.84;;;12.24;72.89
13974;BME280;7060;43.770;4.008;2022-12-29T09:30:10;101517.06;;;12.24;73.23
13974;BME280;7060;43.770;4.008;2022-12-29T09:32:39;101522.59;;;12.32;73.23
13974;BME280;7060;43.770;4.008;2022-12-29T09:35:12;101520.22;;;12.39;71.98
13974;BME280;7060;43.770;4.008;2022-12-29T09:37:41;101514.69;;;12.40;71.40
13974;BME280;7060;43.770;4.008;2022-12-29T09:40:22;101517.22;;;12.42;71.22
13974;BME280;7060;43.770;4.008;2022-12-29T09:43:05;101525.72;;;12.37;70.88
13974;BME280;7060;43.770;4.008;2022-12-29T09:45:43;101525.41;;;12.31;71.40
13974;BME280;7060;43.770;4.008;2022-12-29T09:48:16;101514.69;;;12.31;71.71
13974;BME280;7060;43.770;4.008;2022-12-29T09:50:51;101513.84;;;12.30;71.77
13974;BME280;7060;43.770;4.008;2022-12-29T09:53:25;101503.81;;;12.32;72.00
13974;BME280;7060;43.770;4.008;2022-12-29T09:55:57;101491.13;;;12.44;72.12
13974;BME280;7060;43.770;4.008;2022-12-29T09:58:30;101490.72;;;12.58;71.74
13974;BME280;7060;43.770;4.008;2022-12-29T10:01:04;101499.34;;;12.62;71.09
13974;BME280;7060;43.770;4.008;2022-12-29T10:03:43;101501.03;;;12.63;70.58
13974;BME280;7060;43.770;4.008;2022-12-29T10:06:16;101507.50;;;12.70;70.42
13974;BME280;7060;43.770;4.008;2022-12-29T10:08:52;101499.63;;;12.78;69.73
13974;BME280;7060;43.770;4.008;2022-12-29T10:11:33;101505.41;;;12.83;69.47
13974;BME280;7060;43.770;4.008;2022-12-29T10:14:19;101472.25;;;12.65;69.25
13974;BME280;7060;43.770;4.008;2022-12-29T10:16:57;101494.81;;;12.81;69.46
13974;BME280;7060;43.770;4.008;2022-12-29T10:19:42;101491.00;;;12.94;69.06
13974;BME280;7060;43.770;4.008;2022-12-29T10:22:30;101463.19;;;12.75;68.21
13974;BME280;7060;43.770;4.008;2022-12-29T10:25:02;101489.31;;;12.83;68.39
13974;BME280;7060;43.770;4.008;2022-12-29T10:27:32;101489.16;;;12.84;68.96
13974;BME280;7060;43.770;4.008;2022-12-29T10:30:03;101489.59;;;12.89;69.15
13974;BME280;7060;43.770;4.008;2022-12-29T10:32:36;101496.06;;;12.97;69.03
13974;BME280;7060;43.770;4.008;2022-12-29T10:35:12;101486.31;;;13.05;68.98
13974;BME280;7060;43.770;4.008;2022-12-29T10:37:50;101360.72;;;12.43;68.87
13974;BME280;7060;43.770;4.008;2022-12-29T10:40:25;101454.66;;;13.09;69.13
13974;BME280;7060;43.770;4.008;2022-12-29T10:42:57;101469.84;;;13.37;68.74
13974;BME280;7060;43.770;4.008;2022-12-29T10:45:30;101432.31;;;13.18;68.13
13974;BME280;7060;43.770;4.008;2022-12-29T10:48:05;101442.03;;;13.29;68.22
13974;BME280;7060;43.770;4.008;2022-12-29T10:50:37;101459.84;;;13.30;68.24
13974;BME280;7060;43.770;4.008;2022-12-29T10:53:18;101447.72;;;13.16;68.58
13974;BME280;7060;43.770;4.008;2022-12-29T10:55:48;101475.38;;;13.26;68.32
13974;BME280;7060;43.770;4.008;2022-12-29T10:58:18;101374.53;;;12.67;68.55
13974;BME280;7060;43.770;4.008;2022-12-29T11:00:52;101443.34;;;13.15;68.87
13974;BME280;7060;43.770;4.008;2022-12-29T11:03:36;101468.19;;;13.27;68.58
13974;BME280;7060;43.770;4.008;2022-12-29T11:06:14;101471.31;;;13.22;69.30
13974;BME280;7060;43.770;4.008;2022-12-29T11:08:51;101451.69;;;13.21;69.50
13974;BME280;7060;43.770;4.008;2022-12-29T11:11:26;101455.50;;;13.19;69.75
13974;BME280;7060;43.770;4.008;2022-12-29T11:13:58;101431.06;;;13.03;69.03
13974;BME280;7060;43.770;4.008;2022-12-29T11:16:30;101442.78;;;13.11;69.41
13974;BME280;7060;43.770;4.008;2022-12-29T11:19:00;101447.84;;;13.24;69.51
13974;BME280;7060;43.770;4.008;2022-12-29T11:21:32;101449.25;;;13.28;69.65
13974;BME280;7060;43.770;4.008;2022-12-29T11:24:02;101422.03;;;13.13;70.01
13974;BME280;7060;43.770;4.008;2022-12-29T11:26:32;101446.97;;;13.23;69.57
13974;BME280;7060;43.770;4.008;2022-12-29T11:29:21;101443.91;;;13.18;69.48
13974;BME280;7060;43.770;4.008;2022-12-29T11:31:53;101437.69;;;13.18;69.29
13974;BME280;7060;43.770;4.008;2022-12-29T11:34:24;101423.28;;;13.19;69.63
13974;BME280;7060;43.770;4.008;2022-12-29T11:37:00;101414.81;;;13.14;69.62
13974;BME280;7060;43.770;4.008;2022-12-29T11:39:35;101400.69;;;13.12;69.98
13974;BME280;7060;43.770;4.008;2022-12-29T11:42:11;101420.25;;;13.32;70.09
13974;BME280;7060;43.770;4.008;2022-12-29T11:44:43;101414.31;;;13.38;70.01
13974;BME280;7060;43.770;4.008;2022-12-29T11:47:22;101379.34;;;13.20;69.90
13974;BME280;7060;43.770;4.008;2022-12-29T11:49:54;101398.34;;;13.36;70.25
13974;BME280;7060;43.770;4.008;2022-12-29T11:52:25;101401.31;;;13.33;70.30
13974;BME280;7060;43.770;4.008;2022-12-29T11:54:56;101393.81;;;13.37;70.13
13974;BME280;7060;43.770;4.008;2022-12-29T11:57:25;101391.41;;;13.43;70.11
13974;BME280;7060;43.770;4.008;2022-12-29T11:59:57;101410.16;;;13.53;70.32
13974;BME280;7060;43.770;4.008;2022-12-29T12:02:46;101388.28;;;13.48;70.31
13974;BME280;7060;43.770;4.008;2022-12-29T12:05:24;101393.19;;;13.52;70.01
13974;BME280;7060;43.770;4.008;2022-12-29T12:08:01;101380.53;;;13.35;70.31
13974;BME280;7060;43.770;4.008;2022-12-29T12:10:33;101365.00;;;13.29;69.82
13974;BME280;7060;43.770;4.008;2022-12-29T12:13:11;101378.00;;;13.43;70.46
13974;BME280;7060;43.770;4.008;2022-12-29T12:15:48;101367.78;;;13.47;70.67
13974;BME280;7060;43.770;4.008;2022-12-29T12:18:32;101353.53;;;13.37;70.59
13974;BME280;7060;43.770;4.008;2022-12-29T12:21:08;101371.69;;;13.52;70.58
13974;BME280;7060;43.770;4.008;2022-12-29T12:23:47;101370.72;;;13.53;70.85
13974;BME280;7060;43.770;4.008;2022-12-29T12:26:25;101238.06;;;12.82;70.68
13974;BME280;7060;43.770;4.008;2022-12-29T12:29:00;101335.78;;;13.53;70.24
13974;BME280;7060;43.770;4.008;2022-12-29T12:31:41;101355.50;;;13.72;70.30
13974;BME280;7060;43.770;4.008;2022-12-29T12:34:16;101360.22;;;13.78;70.31
13974;BME280;7060;43.770;4.008;2022-12-29T12:36:59;101268.84;;;13.42;69.93
13974;BME280;7060;43.770;4.008;2022-12-29T12:39:37;101336.13;;;13.86;69.93
13974;BME280;7060;43.770;4.008;2022-12-29T12:42:21;101328.16;;;13.94;69.68
13974;BME280;7060;43.770;4.008;2022-12-29T12:45:04;101317.13;;;13.97;69.66
13974;BME280;7060;43.770;4.008;2022-12-29T12:47:52;101309.94;;;14.06;69.26
13974;BME280;7060;43.770;4.008;2022-12-29T12:50:43;101284.69;;;13.99;68.92
13974;BME280;7060;43.770;4.008;2022-12-29T12:53:33;101300.81;;;14.16;68.74
13974;BME280;7060;43.770;4.008;2022-12-29T12:56:24;101278.88;;;14.03;68.79
13974;BME280;7060;43.770;4.008;2022-12-29T12:58:59;101280.38;;;14.06;68.65
13974;BME280;7060;43.770;4.008;2022-12-29T13:01:42;101284.13;;;14.13;68.33
13974;BME280;7060;43.770;4.008;2022-12-29T13:07:30;101296.50;;;14.23;68.47
13974;BME280;7060;43.770;4.008;2022-12-29T13:10:16;101196.88;;;13.64;68.17
13974;BME280;7060;43.770;4.008;2022-12-29T13:13:12;101289.75;;;14.19;68.72
13974;BME280;7060;43.770;4.008;2022-12-29T13:15:51;101295.13;;;14.19;68.97
13974;BME280;7060;43.770;4.008;2022-12-29T13:18:28;101292.50;;;14.28;69.23
13974;BME280;7060;43.770;4.008;2022-12-29T13:21:03;101267.06;;;14.22;68.99
13974;BME280;7060;43.770;4.008;2022-12-29T13:23:40;101282.47;;;14.38;68.96
13974;BME280;7060;43.770;4.008;2022-12-29T13:26:14;101281.16;;;14.42;68.86
13974;BME280;7060;43.770;4.008;2022-12-29T13:28:51;101273.72;;;14.36;68.54
13974;BME280;7060;43.770;4.008;2022-12-29T13:31:28;101273.69;;;14.28;69.09
13974;BME280;7060;43.770;4.008;2022-12-29T13:34:05;101271.75;;;14.20;68.72
13974;BME280;7060;43.770;4.008;2022-12-29T13:36:42;101277.06;;;14.12;68.93
13974;BME280;7060;43.770;4.008;2022-12-29T13:39:18;101269.47;;;14.07;69.36
13974;BME280;7060;43.770;4.008;2022-12-29T13:41:49;101180.28;;;13.50;69.37